RYR159M EDDK-LEPA
Flight info
| Callsign | RYR159M |
|---|---|
| Flight time | 2h 5m |
| Altitude | 37000 |
| Route | NVO2R NVO Y868 NAVAK Z283 SOPOK DCT ROUSY DCT GTQ DCT POGOL DCT LASAT DCT MOROK DCT GILIR DCT GEVEA DCT INCUS DCT BALSI DCT RETNO DCT TUPOX DCT MTG DCT DIVKO DCT VATIR DCT PIVUS DCT BODEQ DCT VERSO L129 LUNIK |
| Aircraft | B738/M-SDE2E3FGHIRWXY/LB1 |
Departure
| Time | 2026-05-06 14:12 |
|---|---|
| Airport | Cologne Bonn Airport (EDDK) |
Arrival
| Time | 2026-05-06 16:18 |
|---|---|
| Airport | Palma de Mallorca Airport (LEPA) |
| Time | Latitude | Longitude | Altitude | Speed | Heading |
|---|---|---|---|---|---|
| 2026-05-06 13:29 | 50.88245 | 7.11815 | 234 ft | 0 kts | 186° |
| 2026-05-06 13:53 | 50.88246 | 7.11814 | 234 ft | 4 kts | 189° |
| 2026-05-06 13:53 | 50.88258 | 7.11816 | 233 ft | 4 kts | 177° |
| 2026-05-06 13:54 | 50.88282 | 7.11806 | 233 ft | 4 kts | 136° |
| 2026-05-06 13:54 | 50.88294 | 7.11772 | 231 ft | 4 kts | 92° |
| 2026-05-06 13:54 | 50.88293 | 7.11743 | 235 ft | 0 kts | 71° |
| 2026-05-06 13:59 | 50.88296 | 7.11757 | 231 ft | 4 kts | 71° |
| 2026-05-06 14:00 | 50.88307 | 7.11821 | 231 ft | 7 kts | 77° |
| 2026-05-06 14:00 | 50.88292 | 7.11900 | 231 ft | 8 kts | 124° |
| 2026-05-06 14:00 | 50.88259 | 7.11973 | 231 ft | 8 kts | 126° |
| 2026-05-06 14:00 | 50.88227 | 7.12043 | 233 ft | 8 kts | 126° |
| 2026-05-06 14:01 | 50.88195 | 7.12112 | 232 ft | 8 kts | 126° |
| 2026-05-06 14:01 | 50.88165 | 7.12178 | 232 ft | 7 kts | 126° |
| 2026-05-06 14:01 | 50.88134 | 7.12246 | 231 ft | 9 kts | 126° |
| 2026-05-06 14:01 | 50.88092 | 7.12336 | 231 ft | 12 kts | 126° |
| 2026-05-06 14:02 | 50.88035 | 7.12445 | 232 ft | 14 kts | 137° |
| 2026-05-06 14:02 | 50.87957 | 7.12557 | 231 ft | 16 kts | 137° |
| 2026-05-06 14:02 | 50.87880 | 7.12609 | 231 ft | 12 kts | 181° |
| 2026-05-06 14:02 | 50.87803 | 7.12651 | 233 ft | 12 kts | 142° |
| 2026-05-06 14:03 | 50.87762 | 7.12708 | 231 ft | 12 kts | 137° |
| 2026-05-06 14:03 | 50.87701 | 7.12797 | 231 ft | 13 kts | 137° |
| 2026-05-06 14:03 | 50.87628 | 7.12902 | 231 ft | 15 kts | 137° |
| 2026-05-06 14:03 | 50.87542 | 7.13026 | 231 ft | 18 kts | 137° |
| 2026-05-06 14:04 | 50.87413 | 7.13213 | 231 ft | 20 kts | 137° |
| 2026-05-06 14:04 | 50.87341 | 7.13317 | 231 ft | 21 kts | 137° |
| 2026-05-06 14:04 | 50.87230 | 7.13478 | 234 ft | 21 kts | 137° |
| 2026-05-06 14:04 | 50.87122 | 7.13634 | 238 ft | 21 kts | 137° |
| 2026-05-06 14:05 | 50.87017 | 7.13785 | 242 ft | 20 kts | 137° |
| 2026-05-06 14:05 | 50.86915 | 7.13931 | 250 ft | 19 kts | 138° |
| 2026-05-06 14:05 | 50.86818 | 7.14070 | 254 ft | 17 kts | 138° |
| 2026-05-06 14:05 | 50.86722 | 7.14166 | 256 ft | 16 kts | 151° |
| 2026-05-06 14:06 | 50.86637 | 7.14277 | 260 ft | 16 kts | 137° |
| 2026-05-06 14:06 | 50.86559 | 7.14391 | 261 ft | 15 kts | 138° |
| 2026-05-06 14:06 | 50.86483 | 7.14498 | 266 ft | 14 kts | 137° |
| 2026-05-06 14:06 | 50.86412 | 7.14603 | 270 ft | 14 kts | 137° |
| 2026-05-06 14:07 | 50.86343 | 7.14702 | 274 ft | 13 kts | 138° |
| 2026-05-06 14:07 | 50.86277 | 7.14797 | 278 ft | 13 kts | 138° |
| 2026-05-06 14:07 | 50.86212 | 7.14891 | 282 ft | 12 kts | 137° |
| 2026-05-06 14:07 | 50.86149 | 7.14984 | 285 ft | 13 kts | 137° |
| 2026-05-06 14:08 | 50.86079 | 7.15086 | 287 ft | 14 kts | 137° |
| 2026-05-06 14:08 | 50.86004 | 7.15194 | 293 ft | 16 kts | 137° |
| 2026-05-06 14:08 | 50.85920 | 7.15316 | 294 ft | 17 kts | 137° |
| 2026-05-06 14:08 | 50.85831 | 7.15443 | 296 ft | 18 kts | 138° |
| 2026-05-06 14:09 | 50.85740 | 7.15576 | 299 ft | 18 kts | 137° |
| 2026-05-06 14:09 | 50.85651 | 7.15707 | 302 ft | 17 kts | 137° |
| 2026-05-06 14:09 | 50.85562 | 7.15836 | 305 ft | 18 kts | 138° |
| 2026-05-06 14:09 | 50.85489 | 7.15947 | 307 ft | 11 kts | 119° |
| 2026-05-06 14:10 | 50.85518 | 7.16061 | 307 ft | 13 kts | 47° |
| 2026-05-06 14:10 | 50.85587 | 7.16178 | 307 ft | 16 kts | 48° |
| 2026-05-06 14:10 | 50.85655 | 7.16298 | 308 ft | 9 kts | 48° |
| 2026-05-06 14:10 | 50.85699 | 7.16316 | 307 ft | 7 kts | 313° |
| 2026-05-06 14:11 | 50.85726 | 7.16271 | 308 ft | 1 kts | 317° |
| 2026-05-06 14:11 | 50.85729 | 7.16267 | 308 ft | 1 kts | 317° |
| 2026-05-06 14:11 | 50.85731 | 7.16264 | 306 ft | 4 kts | 317° |
| 2026-05-06 14:11 | 50.85876 | 7.16056 | 305 ft | 61 kts | 317° |
| 2026-05-06 14:12 | 50.86352 | 7.15364 | 285 ft | 123 kts | 317° |
| 2026-05-06 14:12 | 50.87103 | 7.14249 | 339 ft | 167 kts | 316° |
| 2026-05-06 14:12 | 50.87967 | 7.12974 | 1074 ft | 170 kts | 318° |
| 2026-05-06 14:12 | 50.88827 | 7.11749 | 2061 ft | 164 kts | 319° |
| 2026-05-06 14:13 | 50.89695 | 7.10497 | 2670 ft | 174 kts | 317° |
| 2026-05-06 14:13 | 50.90441 | 7.08989 | 3349 ft | 179 kts | 291° |
| 2026-05-06 14:13 | 50.90809 | 7.07285 | 4463 ft | 151 kts | 292° |
| 2026-05-06 14:13 | 50.91167 | 7.05574 | 4809 ft | 180 kts | 281° |
| 2026-05-06 14:14 | 50.91006 | 7.03485 | 5037 ft | 206 kts | 249° |
| 2026-05-06 14:14 | 50.90468 | 7.01287 | 5238 ft | 226 kts | 253° |
| 2026-05-06 14:14 | 50.89906 | 6.98848 | 5564 ft | 240 kts | 251° |
| 2026-05-06 14:14 | 50.89309 | 6.96248 | 5785 ft | 264 kts | 251° |
| 2026-05-06 14:15 | 50.88684 | 6.93446 | 6411 ft | 270 kts | 251° |
| 2026-05-06 14:15 | 50.88071 | 6.90651 | 7269 ft | 269 kts | 252° |
| 2026-05-06 14:15 | 50.87466 | 6.87858 | 8144 ft | 268 kts | 251° |
| 2026-05-06 14:15 | 50.86856 | 6.85030 | 8868 ft | 273 kts | 251° |
| 2026-05-06 14:16 | 50.86247 | 6.82196 | 9692 ft | 272 kts | 250° |
| 2026-05-06 14:16 | 50.85632 | 6.79331 | 10177 ft | 281 kts | 250° |
| 2026-05-06 14:16 | 50.84980 | 6.76288 | 10337 ft | 302 kts | 250° |
| 2026-05-06 14:16 | 50.84283 | 6.73037 | 10511 ft | 321 kts | 251° |
| 2026-05-06 14:17 | 50.83555 | 6.69645 | 10957 ft | 329 kts | 251° |
| 2026-05-06 14:17 | 50.82818 | 6.66218 | 11610 ft | 330 kts | 251° |
| 2026-05-06 14:17 | 50.82237 | 6.62708 | 12296 ft | 333 kts | 264° |
| 2026-05-06 14:17 | 50.82231 | 6.59039 | 12996 ft | 335 kts | 270° |
| 2026-05-06 14:18 | 50.82304 | 6.55330 | 13551 ft | 342 kts | 271° |
| 2026-05-06 14:18 | 50.82379 | 6.51512 | 13981 ft | 350 kts | 271° |
| 2026-05-06 14:18 | 50.82447 | 6.47661 | 14669 ft | 350 kts | 271° |
| 2026-05-06 14:18 | 50.82506 | 6.43846 | 15271 ft | 354 kts | 271° |
| 2026-05-06 14:19 | 50.82559 | 6.39932 | 15903 ft | 357 kts | 271° |
| 2026-05-06 14:19 | 50.82608 | 6.35991 | 16494 ft | 361 kts | 271° |
| 2026-05-06 14:19 | 50.82653 | 6.32002 | 17060 ft | 364 kts | 271° |
| 2026-05-06 14:19 | 50.82697 | 6.27975 | 17545 ft | 369 kts | 271° |
| 2026-05-06 14:20 | 50.82740 | 6.23886 | 18096 ft | 372 kts | 271° |
| 2026-05-06 14:20 | 50.82781 | 6.19786 | 18573 ft | 376 kts | 271° |
| 2026-05-06 14:20 | 50.82821 | 6.15677 | 19255 ft | 372 kts | 271° |
| 2026-05-06 14:20 | 50.82860 | 6.11552 | 19648 ft | 378 kts | 271° |
| 2026-05-06 14:21 | 50.82898 | 6.07385 | 20163 ft | 380 kts | 271° |
| 2026-05-06 14:21 | 50.82934 | 6.03190 | 20623 ft | 383 kts | 271° |
| 2026-05-06 14:21 | 50.82938 | 5.98962 | 21077 ft | 386 kts | 268° |
| 2026-05-06 14:21 | 50.82405 | 5.94815 | 21587 ft | 388 kts | 247° |
| 2026-05-06 14:22 | 50.80981 | 5.91176 | 22034 ft | 393 kts | 230° |
| 2026-05-06 14:22 | 50.78906 | 5.88332 | 22311 ft | 401 kts | 212° |
| 2026-05-06 14:22 | 50.76451 | 5.86204 | 22741 ft | 404 kts | 209° |
| 2026-05-06 14:22 | 50.73958 | 5.84134 | 23190 ft | 406 kts | 208° |
| 2026-05-06 14:23 | 50.71449 | 5.82034 | 23559 ft | 410 kts | 208° |
| 2026-05-06 14:23 | 50.68934 | 5.79902 | 23902 ft | 412 kts | 208° |
| 2026-05-06 14:23 | 50.66413 | 5.77745 | 24329 ft | 412 kts | 209° |
| 2026-05-06 14:23 | 50.63894 | 5.75583 | 24696 ft | 413 kts | 208° |
| 2026-05-06 14:24 | 50.61343 | 5.73460 | 25005 ft | 416 kts | 204° |
| 2026-05-06 14:24 | 50.58593 | 5.72063 | 25388 ft | 417 kts | 191° |
| 2026-05-06 14:24 | 50.55716 | 5.71579 | 25806 ft | 416 kts | 180° |
| 2026-05-06 14:24 | 50.52819 | 5.71935 | 26098 ft | 420 kts | 173° |
| 2026-05-06 14:25 | 50.49919 | 5.72534 | 26407 ft | 422 kts | 172° |
| 2026-05-06 14:25 | 50.47003 | 5.73162 | 26698 ft | 424 kts | 172° |
| 2026-05-06 14:25 | 50.44079 | 5.73774 | 27102 ft | 423 kts | 172° |
| 2026-05-06 14:25 | 50.41160 | 5.74361 | 27430 ft | 425 kts | 172° |
| 2026-05-06 14:26 | 50.38220 | 5.74932 | 27711 ft | 427 kts | 172° |
| 2026-05-06 14:26 | 50.35269 | 5.75495 | 28042 ft | 427 kts | 173° |
| 2026-05-06 14:26 | 50.32304 | 5.76057 | 28300 ft | 429 kts | 172° |
| 2026-05-06 14:26 | 50.29342 | 5.76618 | 28627 ft | 430 kts | 172° |
| 2026-05-06 14:27 | 50.26351 | 5.77188 | 28825 ft | 433 kts | 172° |
| 2026-05-06 14:27 | 50.23407 | 5.78031 | 29332 ft | 429 kts | 165° |
| 2026-05-06 14:27 | 50.20534 | 5.79276 | 29644 ft | 430 kts | 163° |
| 2026-05-06 14:27 | 50.17703 | 5.80587 | 29948 ft | 429 kts | 163° |
| 2026-05-06 14:28 | 50.14836 | 5.81929 | 30137 ft | 432 kts | 163° |
| 2026-05-06 14:28 | 50.11909 | 5.83284 | 30352 ft | 433 kts | 163° |
| 2026-05-06 14:28 | 50.09003 | 5.84609 | 30470 ft | 437 kts | 164° |
| 2026-05-06 14:28 | 50.06142 | 5.85894 | 30889 ft | 432 kts | 164° |
| 2026-05-06 14:29 | 50.03200 | 5.87205 | 31034 ft | 436 kts | 165° |
| 2026-05-06 14:29 | 50.00273 | 5.88500 | 31171 ft | 439 kts | 165° |
| 2026-05-06 14:29 | 49.97376 | 5.89779 | 31491 ft | 437 kts | 165° |
| 2026-05-06 14:29 | 49.94475 | 5.91057 | 31984 ft | 431 kts | 165° |
| 2026-05-06 14:30 | 49.91583 | 5.92330 | 32189 ft | 433 kts | 166° |
| 2026-05-06 14:30 | 49.88684 | 5.93604 | 32411 ft | 433 kts | 166° |
| 2026-05-06 14:30 | 49.85782 | 5.94880 | 32695 ft | 433 kts | 166° |
| 2026-05-06 14:30 | 49.82890 | 5.96149 | 33004 ft | 431 kts | 166° |
| 2026-05-06 14:31 | 49.80009 | 5.97413 | 33350 ft | 429 kts | 166° |
| 2026-05-06 14:31 | 49.77146 | 5.98667 | 33763 ft | 426 kts | 166° |
| 2026-05-06 14:31 | 49.74312 | 5.99906 | 33985 ft | 426 kts | 166° |
| 2026-05-06 14:31 | 49.71451 | 6.01156 | 34147 ft | 428 kts | 166° |
| 2026-05-06 14:32 | 49.68585 | 6.02405 | 34326 ft | 429 kts | 166° |
| 2026-05-06 14:32 | 49.65718 | 6.03655 | 34564 ft | 428 kts | 166° |
| 2026-05-06 14:32 | 49.62850 | 6.04903 | 34767 ft | 428 kts | 166° |
| 2026-05-06 14:32 | 49.59985 | 6.06149 | 34930 ft | 429 kts | 166° |
| 2026-05-06 14:33 | 49.57105 | 6.07400 | 35115 ft | 429 kts | 166° |
| 2026-05-06 14:33 | 49.54237 | 6.08644 | 35360 ft | 428 kts | 166° |
| 2026-05-06 14:33 | 49.51370 | 6.09886 | 35543 ft | 428 kts | 166° |
| 2026-05-06 14:33 | 49.48558 | 6.11444 | 35672 ft | 432 kts | 157° |
| 2026-05-06 14:34 | 49.45912 | 6.13643 | 35845 ft | 434 kts | 149° |
| 2026-05-06 14:34 | 49.43486 | 6.16429 | 36025 ft | 436 kts | 143° |
| 2026-05-06 14:34 | 49.41136 | 6.19373 | 36186 ft | 437 kts | 143° |
| 2026-05-06 14:34 | 49.38789 | 6.22343 | 36334 ft | 438 kts | 143° |
| 2026-05-06 14:35 | 49.36436 | 6.25311 | 36491 ft | 437 kts | 143° |
| 2026-05-06 14:35 | 49.34085 | 6.28253 | 36728 ft | 436 kts | 143° |
| 2026-05-06 14:35 | 49.29348 | 6.34121 | 36822 ft | 441 kts | 144° |
| 2026-05-06 14:36 | 49.24531 | 6.40041 | 36838 ft | 447 kts | 144° |
| 2026-05-06 14:36 | 49.19670 | 6.46000 | 36835 ft | 453 kts | 144° |
| 2026-05-06 14:37 | 49.14703 | 6.52078 | 36830 ft | 456 kts | 144° |
| 2026-05-06 14:37 | 49.09777 | 6.58091 | 36815 ft | 457 kts | 144° |
| 2026-05-06 14:38 | 49.04806 | 6.64144 | 36809 ft | 457 kts | 144° |
| 2026-05-06 14:38 | 48.99565 | 6.69616 | 36813 ft | 450 kts | 160° |
| 2026-05-06 14:39 | 48.96599 | 6.71053 | 36814 ft | 447 kts | 171° |
| 2026-05-06 14:39 | 48.93571 | 6.71599 | 36814 ft | 443 kts | 182° |
| 2026-05-06 14:39 | 48.87387 | 6.71286 | 36814 ft | 442 kts | 184° |
| 2026-05-06 14:40 | 48.81281 | 6.70958 | 36818 ft | 442 kts | 183° |
| 2026-05-06 14:40 | 48.75141 | 6.70691 | 36818 ft | 442 kts | 183° |
| 2026-05-06 14:41 | 48.68997 | 6.70453 | 36823 ft | 441 kts | 183° |
| 2026-05-06 14:41 | 48.63545 | 6.70245 | 36819 ft | 441 kts | 183° |
| 2026-05-06 14:42 | 48.60972 | 6.70146 | 36824 ft | 441 kts | 183° |
| 2026-05-06 14:42 | 48.58950 | 6.70068 | 36837 ft | 441 kts | 183° |
| 2026-05-06 14:43 | 48.52815 | 6.69832 | 36837 ft | 441 kts | 183° |
| 2026-05-06 14:43 | 48.48936 | 6.69683 | 36842 ft | 443 kts | 183° |
| 2026-05-06 14:44 | 48.44674 | 6.69522 | 36828 ft | 446 kts | 183° |
| 2026-05-06 14:45 | 48.35407 | 6.69163 | 36824 ft | 442 kts | 183° |
| 2026-05-06 14:45 | 48.29290 | 6.68928 | 36831 ft | 440 kts | 183° |
| 2026-05-06 14:46 | 48.23179 | 6.68693 | 36854 ft | 438 kts | 183° |
| 2026-05-06 14:46 | 48.17083 | 6.68460 | 36858 ft | 439 kts | 183° |
| 2026-05-06 14:47 | 48.10977 | 6.68226 | 36861 ft | 438 kts | 183° |
| 2026-05-06 14:47 | 48.04884 | 6.67995 | 36849 ft | 437 kts | 183° |
| 2026-05-06 14:48 | 47.98811 | 6.67765 | 36869 ft | 436 kts | 183° |
| 2026-05-06 14:48 | 47.92785 | 6.67537 | 36866 ft | 436 kts | 183° |
| 2026-05-06 14:49 | 47.86725 | 6.67309 | 36870 ft | 435 kts | 183° |
| 2026-05-06 14:49 | 47.80670 | 6.67081 | 36874 ft | 436 kts | 183° |
| 2026-05-06 14:50 | 47.74602 | 6.66853 | 36885 ft | 436 kts | 183° |
| 2026-05-06 14:50 | 47.68528 | 6.66625 | 36880 ft | 437 kts | 183° |
| 2026-05-06 14:51 | 47.62447 | 6.66397 | 36882 ft | 437 kts | 183° |
| 2026-05-06 14:51 | 47.56357 | 6.66170 | 36890 ft | 438 kts | 183° |
| 2026-05-06 14:52 | 47.50260 | 6.65943 | 36885 ft | 439 kts | 183° |
| 2026-05-06 14:52 | 47.45141 | 6.65753 | 36892 ft | 439 kts | 184° |
| 2026-05-06 14:52 | 47.42117 | 6.65264 | 36869 ft | 437 kts | 195° |
| 2026-05-06 14:53 | 47.39247 | 6.63834 | 36892 ft | 435 kts | 205° |
| 2026-05-06 14:53 | 47.34229 | 6.58959 | 36905 ft | 433 kts | 220° |
| 2026-05-06 14:54 | 47.29679 | 6.53117 | 36894 ft | 434 kts | 220° |
| 2026-05-06 14:54 | 47.25110 | 6.47304 | 36896 ft | 434 kts | 220° |
| 2026-05-06 14:55 | 47.20506 | 6.41538 | 36897 ft | 435 kts | 220° |
| 2026-05-06 14:55 | 47.15895 | 6.35794 | 36903 ft | 434 kts | 220° |
| 2026-05-06 14:56 | 47.11313 | 6.30096 | 36896 ft | 434 kts | 220° |
| 2026-05-06 14:56 | 47.06294 | 6.25255 | 36905 ft | 434 kts | 203° |
| 2026-05-06 14:57 | 47.00478 | 6.22981 | 36905 ft | 435 kts | 187° |
| 2026-05-06 14:57 | 46.94448 | 6.22224 | 36912 ft | 435 kts | 186° |
| 2026-05-06 14:58 | 46.88423 | 6.21501 | 36915 ft | 434 kts | 187° |
| 2026-05-06 14:58 | 46.82406 | 6.20730 | 36915 ft | 434 kts | 187° |
| 2026-05-06 14:59 | 46.76400 | 6.19936 | 36915 ft | 433 kts | 187° |
| 2026-05-06 14:59 | 46.70402 | 6.19138 | 36930 ft | 433 kts | 187° |
| 2026-05-06 15:00 | 46.64393 | 6.18342 | 36922 ft | 433 kts | 187° |
| 2026-05-06 15:00 | 46.58386 | 6.17548 | 36927 ft | 433 kts | 187° |
| 2026-05-06 15:01 | 46.52384 | 6.16757 | 36921 ft | 433 kts | 187° |
| 2026-05-06 15:01 | 46.46381 | 6.15969 | 36920 ft | 433 kts | 187° |
| 2026-05-06 15:02 | 46.40382 | 6.15181 | 36930 ft | 433 kts | 187° |
| 2026-05-06 15:02 | 46.34376 | 6.14395 | 36935 ft | 433 kts | 187° |
| 2026-05-06 15:03 | 46.28373 | 6.13611 | 36940 ft | 433 kts | 187° |
| 2026-05-06 15:03 | 46.22388 | 6.12653 | 36937 ft | 432 kts | 190° |
| 2026-05-06 15:04 | 46.16452 | 6.11301 | 36936 ft | 432 kts | 191° |
| 2026-05-06 15:04 | 46.10554 | 6.09935 | 36939 ft | 432 kts | 191° |
| 2026-05-06 15:05 | 46.04607 | 6.08601 | 36951 ft | 433 kts | 191° |
| 2026-05-06 15:05 | 45.98647 | 6.07282 | 36931 ft | 433 kts | 191° |
| 2026-05-06 15:06 | 45.92680 | 6.05967 | 36931 ft | 433 kts | 191° |
| 2026-05-06 15:06 | 45.86723 | 6.04653 | 36937 ft | 433 kts | 191° |
| 2026-05-06 15:07 | 45.80776 | 6.03342 | 36932 ft | 432 kts | 192° |
| 2026-05-06 15:07 | 45.74834 | 6.02029 | 36928 ft | 432 kts | 192° |
| 2026-05-06 15:08 | 45.68892 | 6.00719 | 36906 ft | 432 kts | 192° |
| 2026-05-06 15:08 | 45.62961 | 5.99414 | 36911 ft | 431 kts | 192° |
| 2026-05-06 15:09 | 45.57041 | 5.98115 | 36905 ft | 431 kts | 192° |
| 2026-05-06 15:09 | 45.51123 | 5.96818 | 36909 ft | 430 kts | 192° |
| 2026-05-06 15:10 | 45.45249 | 5.95385 | 36911 ft | 428 kts | 194° |
| 2026-05-06 15:10 | 45.39446 | 5.93566 | 36931 ft | 426 kts | 195° |
| 2026-05-06 15:11 | 45.33659 | 5.91708 | 36933 ft | 426 kts | 195° |
| 2026-05-06 15:11 | 45.27890 | 5.89883 | 36944 ft | 424 kts | 195° |
| 2026-05-06 15:12 | 45.22122 | 5.88087 | 36923 ft | 425 kts | 195° |
| 2026-05-06 15:12 | 45.16374 | 5.86305 | 36926 ft | 426 kts | 195° |
| 2026-05-06 15:13 | 45.10585 | 5.84514 | 36934 ft | 426 kts | 195° |
| 2026-05-06 15:13 | 45.04781 | 5.82721 | 36924 ft | 428 kts | 195° |
| 2026-05-06 15:14 | 44.98981 | 5.80932 | 36927 ft | 426 kts | 195° |
| 2026-05-06 15:14 | 44.93188 | 5.79151 | 36916 ft | 425 kts | 195° |
| 2026-05-06 15:15 | 44.87413 | 5.77378 | 36915 ft | 424 kts | 195° |
| 2026-05-06 15:15 | 44.81660 | 5.75616 | 36912 ft | 422 kts | 196° |
| 2026-05-06 15:16 | 44.75923 | 5.73862 | 36912 ft | 421 kts | 196° |
| 2026-05-06 15:16 | 44.70206 | 5.72118 | 36907 ft | 420 kts | 196° |
| 2026-05-06 15:17 | 44.64488 | 5.70374 | 36921 ft | 422 kts | 195° |
| 2026-05-06 15:17 | 44.58713 | 5.68617 | 36923 ft | 428 kts | 195° |
| 2026-05-06 15:18 | 44.52882 | 5.66847 | 36912 ft | 430 kts | 195° |
| 2026-05-06 15:18 | 44.47019 | 5.65074 | 36902 ft | 431 kts | 195° |
| 2026-05-06 15:19 | 44.41163 | 5.63305 | 36911 ft | 430 kts | 195° |
| 2026-05-06 15:19 | 44.35438 | 5.61067 | 36908 ft | 425 kts | 204° |
| 2026-05-06 15:20 | 44.29961 | 5.57998 | 36893 ft | 424 kts | 204° |
| 2026-05-06 15:20 | 44.24496 | 5.54963 | 36905 ft | 422 kts | 204° |
| 2026-05-06 15:21 | 44.19031 | 5.51966 | 36900 ft | 421 kts | 204° |
| 2026-05-06 15:21 | 44.13584 | 5.48997 | 36900 ft | 420 kts | 204° |
| 2026-05-06 15:22 | 44.08175 | 5.46056 | 36880 ft | 420 kts | 204° |
| 2026-05-06 15:22 | 44.02739 | 5.43102 | 36898 ft | 419 kts | 204° |
| 2026-05-06 15:23 | 43.97315 | 5.40162 | 36897 ft | 418 kts | 204° |
| 2026-05-06 15:23 | 43.91890 | 5.37227 | 36892 ft | 418 kts | 204° |
| 2026-05-06 15:24 | 43.86471 | 5.34300 | 36892 ft | 417 kts | 205° |
| 2026-05-06 15:24 | 43.81060 | 5.31381 | 36910 ft | 417 kts | 204° |
| 2026-05-06 15:25 | 43.75646 | 5.28465 | 36906 ft | 418 kts | 205° |
| 2026-05-06 15:25 | 43.70223 | 5.25552 | 36888 ft | 418 kts | 205° |
| 2026-05-06 15:26 | 43.64811 | 5.22650 | 36906 ft | 417 kts | 205° |
| 2026-05-06 15:26 | 43.59399 | 5.19752 | 36912 ft | 417 kts | 205° |
| 2026-05-06 15:27 | 43.53989 | 5.16862 | 36919 ft | 417 kts | 205° |
| 2026-05-06 15:27 | 43.48578 | 5.13976 | 36905 ft | 417 kts | 205° |
| 2026-05-06 15:28 | 43.43176 | 5.11100 | 36911 ft | 416 kts | 205° |
| 2026-05-06 15:28 | 43.37873 | 5.07980 | 36903 ft | 412 kts | 213° |
| 2026-05-06 15:29 | 43.33178 | 5.03611 | 36917 ft | 410 kts | 217° |
| 2026-05-06 15:29 | 43.28495 | 4.99146 | 36907 ft | 410 kts | 217° |
| 2026-05-06 15:30 | 43.23799 | 4.94716 | 36935 ft | 409 kts | 217° |
| 2026-05-06 15:30 | 43.19096 | 4.90301 | 36923 ft | 410 kts | 217° |
| 2026-05-06 15:31 | 43.14385 | 4.85888 | 36921 ft | 410 kts | 217° |
| 2026-05-06 15:31 | 43.09671 | 4.81478 | 36917 ft | 410 kts | 217° |
| 2026-05-06 15:32 | 43.02438 | 4.75193 | 36930 ft | 412 kts | 212° |
| 2026-05-06 15:32 | 42.97407 | 4.71414 | 36928 ft | 413 kts | 212° |
| 2026-05-06 15:33 | 42.92369 | 4.67635 | 36921 ft | 413 kts | 212° |
| 2026-05-06 15:33 | 42.87337 | 4.63844 | 36930 ft | 413 kts | 212° |
| 2026-05-06 15:34 | 42.82313 | 4.60055 | 36927 ft | 413 kts | 212° |
| 2026-05-06 15:34 | 42.77283 | 4.56265 | 36940 ft | 414 kts | 212° |
| 2026-05-06 15:35 | 42.72274 | 4.52499 | 36935 ft | 414 kts | 212° |
| 2026-05-06 15:35 | 42.67228 | 4.48711 | 36934 ft | 415 kts | 212° |
| 2026-05-06 15:36 | 42.62170 | 4.44923 | 36935 ft | 415 kts | 212° |
| 2026-05-06 15:36 | 42.57109 | 4.41139 | 36943 ft | 415 kts | 212° |
| 2026-05-06 15:37 | 42.52044 | 4.37359 | 36922 ft | 415 kts | 212° |
| 2026-05-06 15:37 | 42.46997 | 4.33600 | 36932 ft | 414 kts | 212° |
| 2026-05-06 15:38 | 42.41952 | 4.29849 | 36941 ft | 413 kts | 212° |
| 2026-05-06 15:38 | 42.36915 | 4.26111 | 36941 ft | 413 kts | 212° |
| 2026-05-06 15:39 | 42.31883 | 4.22382 | 36932 ft | 412 kts | 212° |
| 2026-05-06 15:39 | 42.26862 | 4.18669 | 36957 ft | 411 kts | 212° |
| 2026-05-06 15:40 | 42.21848 | 4.14966 | 36943 ft | 410 kts | 212° |
| 2026-05-06 15:40 | 42.16842 | 4.11278 | 36947 ft | 410 kts | 212° |
| 2026-05-06 15:41 | 42.12647 | 4.08195 | 36946 ft | 410 kts | 212° |
| 2026-05-06 15:41 | 42.07645 | 4.04525 | 36949 ft | 409 kts | 212° |
| 2026-05-06 15:42 | 42.02680 | 4.00885 | 36944 ft | 409 kts | 212° |
| 2026-05-06 15:42 | 41.97684 | 3.97229 | 36954 ft | 409 kts | 212° |
| 2026-05-06 15:43 | 41.92587 | 3.93815 | 36941 ft | 413 kts | 204° |
| 2026-05-06 15:43 | 41.86960 | 3.92020 | 36953 ft | 419 kts | 195° |
| 2026-05-06 15:44 | 41.81203 | 3.90754 | 36947 ft | 419 kts | 195° |
| 2026-05-06 15:44 | 41.75462 | 3.89456 | 36946 ft | 419 kts | 195° |
| 2026-05-06 15:45 | 41.69711 | 3.88133 | 36930 ft | 419 kts | 195° |
| 2026-05-06 15:45 | 41.63959 | 3.86809 | 36942 ft | 419 kts | 195° |
| 2026-05-06 15:46 | 41.58207 | 3.85490 | 36948 ft | 420 kts | 195° |
| 2026-05-06 15:46 | 41.52452 | 3.84169 | 36949 ft | 420 kts | 195° |
| 2026-05-06 15:47 | 41.46694 | 3.82850 | 36942 ft | 419 kts | 195° |
| 2026-05-06 15:47 | 41.40942 | 3.81534 | 36945 ft | 419 kts | 195° |
| 2026-05-06 15:48 | 41.35188 | 3.80220 | 36955 ft | 420 kts | 195° |
| 2026-05-06 15:48 | 41.29422 | 3.78905 | 36943 ft | 421 kts | 195° |
| 2026-05-06 15:49 | 41.23651 | 3.77592 | 36935 ft | 421 kts | 195° |
| 2026-05-06 15:49 | 41.17876 | 3.76280 | 36945 ft | 421 kts | 195° |
| 2026-05-06 15:50 | 41.12295 | 3.74245 | 36955 ft | 412 kts | 206° |
| 2026-05-06 15:50 | 41.06959 | 3.71432 | 36911 ft | 413 kts | 206° |
| 2026-05-06 15:51 | 41.01617 | 3.68651 | 36931 ft | 412 kts | 206° |
| 2026-05-06 15:51 | 40.96274 | 3.65896 | 36942 ft | 412 kts | 206° |
| 2026-05-06 15:52 | 40.90964 | 3.63171 | 36939 ft | 412 kts | 206° |
| 2026-05-06 15:52 | 40.85616 | 3.60431 | 36937 ft | 412 kts | 206° |
| 2026-05-06 15:53 | 40.80256 | 3.57688 | 36462 ft | 417 kts | 206° |
| 2026-05-06 15:53 | 40.77570 | 3.56317 | 35953 ft | 412 kts | 206° |
| 2026-05-06 15:53 | 40.74908 | 3.54960 | 35367 ft | 409 kts | 206° |
| 2026-05-06 15:54 | 40.72257 | 3.53609 | 34730 ft | 408 kts | 207° |
| 2026-05-06 15:54 | 40.69614 | 3.52262 | 34104 ft | 407 kts | 207° |
| 2026-05-06 15:54 | 40.66977 | 3.50919 | 33381 ft | 406 kts | 207° |
| 2026-05-06 15:54 | 40.64346 | 3.49580 | 32680 ft | 405 kts | 207° |
| 2026-05-06 15:55 | 40.61723 | 3.48246 | 31995 ft | 403 kts | 206° |
| 2026-05-06 15:55 | 40.59106 | 3.46917 | 31288 ft | 403 kts | 206° |
| 2026-05-06 15:55 | 40.56489 | 3.45588 | 30577 ft | 403 kts | 206° |
| 2026-05-06 15:55 | 40.53869 | 3.44259 | 29824 ft | 404 kts | 206° |
| 2026-05-06 15:56 | 40.51245 | 3.42929 | 28979 ft | 405 kts | 206° |
| 2026-05-06 15:56 | 40.48619 | 3.41600 | 28169 ft | 404 kts | 206° |
| 2026-05-06 15:56 | 40.45995 | 3.40275 | 27399 ft | 404 kts | 205° |
| 2026-05-06 15:56 | 40.43290 | 3.39339 | 26872 ft | 405 kts | 192° |
| 2026-05-06 15:57 | 40.40444 | 3.39301 | 26352 ft | 413 kts | 184° |
| 2026-05-06 15:57 | 40.37520 | 3.39491 | 25819 ft | 430 kts | 183° |
| 2026-05-06 15:57 | 40.34491 | 3.39706 | 25260 ft | 437 kts | 182° |
| 2026-05-06 15:57 | 40.31481 | 3.39921 | 24676 ft | 430 kts | 182° |
| 2026-05-06 15:58 | 40.28517 | 3.40119 | 24124 ft | 424 kts | 183° |
| 2026-05-06 15:58 | 40.25592 | 3.40298 | 23585 ft | 418 kts | 183° |
| 2026-05-06 15:58 | 40.22696 | 3.40465 | 22942 ft | 414 kts | 183° |
| 2026-05-06 15:58 | 40.19840 | 3.40625 | 22333 ft | 408 kts | 183° |
| 2026-05-06 15:59 | 40.17027 | 3.40783 | 21838 ft | 402 kts | 183° |
| 2026-05-06 15:59 | 40.14253 | 3.40939 | 21300 ft | 397 kts | 183° |
| 2026-05-06 15:59 | 40.11495 | 3.41093 | 21001 ft | 399 kts | 182° |
| 2026-05-06 15:59 | 40.08711 | 3.41247 | 20966 ft | 400 kts | 182° |
| 2026-05-06 16:00 | 40.06009 | 3.41403 | 20930 ft | 386 kts | 182° |
| 2026-05-06 16:00 | 40.03352 | 3.41560 | 20921 ft | 369 kts | 183° |
| 2026-05-06 16:00 | 40.00840 | 3.41708 | 20920 ft | 354 kts | 183° |
| 2026-05-06 16:00 | 39.98463 | 3.41845 | 20920 ft | 339 kts | 184° |
| 2026-05-06 16:01 | 39.96126 | 3.41960 | 20916 ft | 323 kts | 187° |
| 2026-05-06 16:01 | 39.94000 | 3.41601 | 20929 ft | 302 kts | 200° |
| 2026-05-06 16:01 | 39.92031 | 3.40727 | 20754 ft | 292 kts | 207° |
| 2026-05-06 16:01 | 39.90174 | 3.39682 | 20131 ft | 297 kts | 208° |
| 2026-05-06 16:02 | 39.88279 | 3.38594 | 19536 ft | 298 kts | 208° |
| 2026-05-06 16:02 | 39.86376 | 3.37502 | 18948 ft | 300 kts | 208° |
| 2026-05-06 16:02 | 39.84474 | 3.36416 | 18370 ft | 301 kts | 208° |
| 2026-05-06 16:02 | 39.82556 | 3.35328 | 17731 ft | 302 kts | 207° |
| 2026-05-06 16:03 | 39.80627 | 3.34237 | 17070 ft | 302 kts | 207° |
| 2026-05-06 16:03 | 39.78695 | 3.33148 | 16443 ft | 303 kts | 207° |
| 2026-05-06 16:03 | 39.76762 | 3.32061 | 15803 ft | 303 kts | 207° |
| 2026-05-06 16:03 | 39.74827 | 3.30974 | 15171 ft | 303 kts | 207° |
| 2026-05-06 16:04 | 39.72998 | 3.29653 | 14552 ft | 300 kts | 223° |
| 2026-05-06 16:04 | 39.71594 | 3.27681 | 13973 ft | 297 kts | 235° |
| 2026-05-06 16:04 | 39.70395 | 3.25491 | 13333 ft | 297 kts | 236° |
| 2026-05-06 16:04 | 39.69221 | 3.23282 | 12682 ft | 298 kts | 237° |
| 2026-05-06 16:05 | 39.68046 | 3.21064 | 12034 ft | 298 kts | 236° |
| 2026-05-06 16:05 | 39.66869 | 3.18851 | 11407 ft | 298 kts | 236° |
| 2026-05-06 16:05 | 39.65687 | 3.16641 | 10805 ft | 298 kts | 236° |
| 2026-05-06 16:05 | 39.64526 | 3.14480 | 10561 ft | 286 kts | 236° |
| 2026-05-06 16:06 | 39.63406 | 3.12402 | 10353 ft | 275 kts | 236° |
| 2026-05-06 16:06 | 39.62321 | 3.10393 | 10279 ft | 271 kts | 236° |
| 2026-05-06 16:06 | 39.61241 | 3.08395 | 10174 ft | 272 kts | 236° |
| 2026-05-06 16:06 | 39.60152 | 3.06383 | 10068 ft | 273 kts | 236° |
| 2026-05-06 16:07 | 39.59074 | 3.04393 | 9837 ft | 271 kts | 236° |
| 2026-05-06 16:07 | 39.57990 | 3.02394 | 9538 ft | 271 kts | 236° |
| 2026-05-06 16:07 | 39.56909 | 3.00401 | 9246 ft | 270 kts | 236° |
| 2026-05-06 16:07 | 39.55828 | 2.98410 | 8953 ft | 270 kts | 236° |
| 2026-05-06 16:08 | 39.54749 | 2.96425 | 8668 ft | 270 kts | 236° |
| 2026-05-06 16:08 | 39.53668 | 2.94438 | 8365 ft | 269 kts | 236° |
| 2026-05-06 16:08 | 39.52588 | 2.92453 | 8076 ft | 269 kts | 236° |
| 2026-05-06 16:08 | 39.51508 | 2.90473 | 7790 ft | 270 kts | 236° |
| 2026-05-06 16:09 | 39.50427 | 2.88487 | 7490 ft | 270 kts | 236° |
| 2026-05-06 16:09 | 39.49386 | 2.86468 | 7201 ft | 270 kts | 240° |
| 2026-05-06 16:09 | 39.48459 | 2.84365 | 6933 ft | 269 kts | 242° |
| 2026-05-06 16:09 | 39.47568 | 2.82283 | 6659 ft | 268 kts | 242° |
| 2026-05-06 16:10 | 39.46672 | 2.80174 | 6403 ft | 267 kts | 242° |
| 2026-05-06 16:10 | 39.45783 | 2.78074 | 6128 ft | 266 kts | 242° |
| 2026-05-06 16:10 | 39.44896 | 2.75978 | 5849 ft | 265 kts | 242° |
| 2026-05-06 16:10 | 39.44030 | 2.73901 | 5570 ft | 260 kts | 243° |
| 2026-05-06 16:11 | 39.43193 | 2.71861 | 5273 ft | 254 kts | 243° |
| 2026-05-06 16:11 | 39.42378 | 2.69858 | 4985 ft | 249 kts | 243° |
| 2026-05-06 16:11 | 39.41582 | 2.67894 | 4705 ft | 245 kts | 243° |
| 2026-05-06 16:11 | 39.40805 | 2.65959 | 4421 ft | 240 kts | 243° |
| 2026-05-06 16:12 | 39.40061 | 2.64045 | 4133 ft | 237 kts | 248° |
| 2026-05-06 16:12 | 39.39789 | 2.62006 | 4029 ft | 228 kts | 270° |
| 2026-05-06 16:12 | 39.39813 | 2.59967 | 4024 ft | 225 kts | 271° |
| 2026-05-06 16:12 | 39.39858 | 2.57952 | 4018 ft | 224 kts | 272° |
| 2026-05-06 16:13 | 39.39972 | 2.55934 | 3992 ft | 226 kts | 284° |
| 2026-05-06 16:13 | 39.40749 | 2.54207 | 3999 ft | 225 kts | 318° |
| 2026-05-06 16:13 | 39.42130 | 2.53298 | 3842 ft | 225 kts | 352° |
| 2026-05-06 16:13 | 39.43640 | 2.53480 | 3613 ft | 216 kts | 18° |
| 2026-05-06 16:14 | 39.45031 | 2.54128 | 3351 ft | 211 kts | 21° |
| 2026-05-06 16:14 | 39.46412 | 2.54810 | 2946 ft | 213 kts | 23° |
| 2026-05-06 16:14 | 39.47551 | 2.55837 | 2675 ft | 201 kts | 56° |
| 2026-05-06 16:14 | 39.48220 | 2.57385 | 2441 ft | 188 kts | 58° |
| 2026-05-06 16:15 | 39.48929 | 2.58784 | 2210 ft | 186 kts | 58° |
| 2026-05-06 16:15 | 39.49611 | 2.60205 | 1954 ft | 185 kts | 59° |
| 2026-05-06 16:15 | 39.50274 | 2.61620 | 1697 ft | 180 kts | 59° |
| 2026-05-06 16:15 | 39.50902 | 2.62958 | 1456 ft | 169 kts | 59° |
| 2026-05-06 16:16 | 39.51490 | 2.64208 | 1269 ft | 156 kts | 59° |
| 2026-05-06 16:16 | 39.52030 | 2.65357 | 1055 ft | 147 kts | 59° |
| 2026-05-06 16:16 | 39.52553 | 2.66471 | 853 ft | 142 kts | 59° |
| 2026-05-06 16:16 | 39.53057 | 2.67542 | 675 ft | 141 kts | 58° |
| 2026-05-06 16:17 | 39.53568 | 2.68617 | 490 ft | 139 kts | 58° |
| 2026-05-06 16:17 | 39.54064 | 2.69677 | 308 ft | 137 kts | 59° |
| 2026-05-06 16:17 | 39.54553 | 2.70716 | 136 ft | 134 kts | 59° |
| 2026-05-06 16:17 | 39.55026 | 2.71714 | 37 ft | 121 kts | 58° |
| 2026-05-06 16:18 | 39.55372 | 2.72435 | 35 ft | 73 kts | 60° |
| 2026-05-06 16:18 | 39.55494 | 2.72739 | 37 ft | 22 kts | 75° |
| 2026-05-06 16:18 | 39.55498 | 2.72859 | 37 ft | 12 kts | 91° |
| 2026-05-06 16:18 | 39.55498 | 2.72930 | 37 ft | 1 kts | 89° |
| 2026-05-06 16:19 | 39.55498 | 2.72941 | 37 ft | 1 kts | 89° |
| 2026-05-06 16:19 | 39.55498 | 2.72951 | 37 ft | 1 kts | 89° |
| 2026-05-06 16:19 | 39.55498 | 2.72961 | 37 ft | 1 kts | 89° |
| 2026-05-06 16:19 | 39.55498 | 2.72970 | 37 ft | 1 kts | 89° |
| 2026-05-06 16:20 | 39.55498 | 2.72995 | 37 ft | 5 kts | 89° |
| 2026-05-06 16:20 | 39.55499 | 2.73055 | 37 ft | 9 kts | 89° |
| 2026-05-06 16:20 | 39.55499 | 2.73149 | 37 ft | 12 kts | 89° |
| 2026-05-06 16:20 | 39.55540 | 2.73258 | 37 ft | 15 kts | 59° |
| 2026-05-06 16:21 | 39.55596 | 2.73377 | 37 ft | 14 kts | 58° |
| 2026-05-06 16:21 | 39.55632 | 2.73472 | 37 ft | 9 kts | 87° |
| 2026-05-06 16:21 | 39.55590 | 2.73526 | 37 ft | 11 kts | 151° |
| 2026-05-06 16:21 | 39.55522 | 2.73577 | 37 ft | 9 kts | 159° |
| 2026-05-06 16:22 | 39.55479 | 2.73526 | 37 ft | 11 kts | 244° |
| 2026-05-06 16:22 | 39.55423 | 2.73453 | 37 ft | 11 kts | 184° |
| 2026-05-06 16:22 | 39.55347 | 2.73502 | 37 ft | 14 kts | 148° |
| 2026-05-06 16:22 | 39.55255 | 2.73575 | 37 ft | 17 kts | 148° |
| 2026-05-06 16:23 | 39.55191 | 2.73613 | 37 ft | 9 kts | 187° |
| 2026-05-06 16:23 | 39.55153 | 2.73540 | 37 ft | 12 kts | 244° |
| 2026-05-06 16:23 | 39.55102 | 2.73435 | 37 ft | 15 kts | 237° |
| 2026-05-06 16:23 | 39.55045 | 2.73373 | 37 ft | 10 kts | 181° |
| 2026-05-06 16:24 | 39.54993 | 2.73388 | 37 ft | 1 kts | 165° |
| 2026-05-06 16:24 | 39.54986 | 2.73391 | 36 ft | 1 kts | 165° |
| 2026-05-06 16:24 | 39.54985 | 2.73391 | 36 ft | 0 kts | 165° |